createdAt,value
2018-06-21T00:01:27.825Z,20.30
2018-06-21T00:03:56.310Z,20.40
2018-06-21T00:06:24.850Z,20.40
2018-06-21T00:08:53.402Z,20.40
2018-06-21T00:11:21.960Z,20.40
2018-06-21T00:13:50.476Z,20.40
2018-06-21T00:16:19.058Z,20.30
2018-06-21T00:18:47.591Z,20.20
2018-06-21T00:21:16.157Z,20.20
2018-06-21T00:23:44.784Z,20.20
2018-06-21T00:26:13.373Z,20.30
2018-06-21T00:31:10.098Z,20.40
2018-06-21T00:33:38.637Z,20.40
2018-06-21T00:36:07.277Z,20.50
2018-06-21T00:38:35.908Z,20.50
2018-06-21T00:41:04.415Z,20.50
2018-06-21T00:43:32.954Z,20.50
2018-06-21T00:46:01.437Z,20.50
2018-06-21T00:48:30.042Z,20.50
2018-06-21T00:50:58.550Z,20.50
2018-06-21T00:53:27.095Z,20.50
2018-06-21T00:56:06.742Z,20.50
2018-06-21T00:58:35.250Z,20.40
2018-06-21T01:01:03.799Z,20.30
2018-06-21T01:03:32.336Z,20.20
2018-06-21T01:06:00.848Z,20.10
2018-06-21T01:08:29.369Z,20.00
2018-06-21T01:10:57.941Z,19.80
2018-06-21T01:13:26.485Z,19.70
2018-06-21T01:15:55.008Z,19.50
2018-06-21T01:18:23.535Z,19.50
2018-06-21T01:20:52.021Z,19.30
2018-06-21T01:23:20.562Z,19.20
2018-06-21T01:25:49.069Z,19.10
2018-06-21T01:28:17.561Z,19.10
2018-06-21T01:30:46.133Z,19.00
2018-06-21T01:33:14.626Z,19.00
2018-06-21T01:35:43.113Z,19.00
2018-06-21T01:38:11.733Z,19.00
2018-06-21T01:40:40.264Z,19.00
2018-06-21T01:43:08.793Z,19.00
2018-06-21T01:45:37.352Z,19.00
2018-06-21T01:48:06.206Z,19.00
2018-06-21T01:50:34.761Z,18.90
2018-06-21T01:53:03.301Z,19.00
2018-06-21T01:55:31.889Z,18.90
2018-06-21T01:58:00.409Z,18.90
2018-06-21T02:00:29.002Z,18.80
2018-06-21T02:02:57.545Z,18.80
2018-06-21T02:05:26.101Z,18.70
2018-06-21T02:07:54.634Z,18.80
2018-06-21T02:10:23.177Z,18.70
2018-06-21T02:12:51.729Z,18.70
2018-06-21T02:15:20.307Z,18.60
2018-06-21T02:17:48.948Z,18.50
2018-06-21T02:20:17.577Z,18.40
2018-06-21T02:22:46.090Z,18.40
2018-06-21T02:25:14.632Z,18.30
2018-06-21T02:27:43.185Z,18.20
2018-06-21T02:30:11.797Z,18.20
2018-06-21T02:32:40.473Z,18.10
2018-06-21T02:35:09.112Z,18.00
2018-06-21T02:40:06.002Z,17.80
2018-06-21T02:42:34.565Z,17.70
2018-06-21T02:45:03.109Z,17.70
2018-06-21T02:47:31.663Z,17.60
2018-06-21T02:50:00.197Z,17.50
2018-06-21T02:52:28.746Z,17.40
2018-06-21T02:54:57.249Z,17.30
2018-06-21T02:57:25.793Z,17.30
2018-06-21T02:59:54.323Z,17.20
2018-06-21T03:02:22.890Z,17.20
2018-06-21T03:04:51.517Z,17.10
2018-06-21T03:07:20.059Z,17.10
2018-06-21T03:09:48.559Z,17.10
2018-06-21T03:14:50.540Z,17.00
2018-06-21T03:17:19.111Z,17.00
2018-06-21T03:19:47.652Z,16.90
2018-06-21T03:22:16.201Z,16.90
2018-06-21T03:24:44.707Z,16.90
2018-06-21T03:27:13.246Z,16.80
2018-06-21T03:29:41.781Z,16.80
2018-06-21T03:32:10.878Z,16.80
2018-06-21T03:34:39.952Z,16.80
2018-06-21T03:37:08.549Z,16.80
2018-06-21T03:39:37.057Z,16.80
2018-06-21T03:42:05.554Z,16.90
2018-06-21T03:44:34.125Z,16.90
2018-06-21T03:47:03.426Z,17.00
2018-06-21T03:49:31.989Z,17.00
2018-06-21T03:52:00.525Z,17.00
2018-06-21T03:54:29.089Z,17.10
2018-06-21T03:56:57.573Z,17.10
2018-06-21T03:59:26.134Z,17.10
2018-06-21T04:01:54.997Z,17.10
2018-06-21T04:04:23.656Z,17.10
2018-06-21T04:06:52.157Z,17.20
2018-06-21T04:09:20.707Z,17.20
2018-06-21T04:11:49.289Z,17.30
2018-06-21T04:14:17.829Z,17.30
2018-06-21T04:16:46.342Z,17.40
2018-06-21T04:19:14.854Z,17.50
2018-06-21T04:21:43.358Z,17.60
2018-06-21T04:24:11.893Z,17.70
2018-06-21T04:26:40.393Z,17.80
2018-06-21T04:29:09.008Z,17.90
2018-06-21T04:31:37.753Z,18.00
2018-06-21T04:34:06.294Z,18.10
2018-06-21T04:36:35.533Z,18.20
2018-06-21T04:39:06.101Z,18.30
2018-06-21T04:41:34.621Z,18.40
2018-06-21T04:44:03.357Z,18.60
2018-06-21T04:46:31.865Z,18.70
2018-06-21T04:49:00.365Z,18.80
2018-06-21T04:51:28.920Z,19.00
2018-06-21T04:53:57.446Z,19.10
2018-06-21T04:56:26.018Z,19.30
2018-06-21T04:58:54.525Z,19.40
2018-06-21T05:01:23.059Z,19.50
2018-06-21T05:03:51.604Z,19.50
2018-06-21T05:06:20.233Z,19.60
2018-06-21T05:08:48.720Z,19.70
2018-06-21T05:11:17.295Z,19.70
2018-06-21T05:13:45.938Z,19.60
2018-06-21T05:16:14.473Z,19.70
2018-06-21T05:18:43.006Z,19.80
2018-06-21T05:21:11.528Z,19.80
2018-06-21T05:23:40.045Z,19.80
2018-06-21T05:26:08.600Z,19.80
2018-06-21T05:28:37.137Z,19.80
2018-06-21T05:31:05.688Z,19.80
2018-06-21T05:33:34.189Z,20.00
2018-06-21T05:36:02.911Z,20.10
2018-06-21T05:38:31.551Z,20.00
2018-06-21T05:41:00.161Z,19.90
2018-06-21T05:43:28.721Z,19.90
2018-06-21T05:45:57.246Z,19.80
2018-06-21T05:48:26.045Z,19.70
2018-06-21T05:50:55.381Z,19.50
2018-06-21T05:53:23.929Z,19.40
2018-06-21T05:55:52.429Z,19.60
2018-06-21T05:58:21.018Z,20.00
2018-06-21T06:00:49.512Z,21.40
2018-06-21T06:03:18.041Z,22.20
2018-06-21T06:05:46.585Z,22.00
2018-06-21T06:08:15.149Z,21.60
2018-06-21T06:10:44.027Z,21.00
2018-06-21T06:13:12.549Z,20.50
2018-06-21T06:15:41.064Z,20.10
2018-06-21T06:18:09.620Z,20.10
2018-06-21T06:20:38.101Z,20.10
2018-06-21T06:23:06.627Z,20.20
2018-06-21T06:25:35.120Z,20.20
2018-06-21T06:28:03.889Z,20.30
2018-06-21T06:30:32.438Z,20.20
2018-06-21T06:33:00.973Z,20.10
2018-06-21T06:35:30.912Z,20.00
2018-06-21T06:38:00.533Z,19.70
2018-06-21T06:40:29.123Z,19.60
2018-06-21T06:42:57.909Z,19.40
2018-06-21T06:45:26.501Z,19.30
2018-06-21T06:47:55.006Z,19.20
2018-06-21T06:50:23.637Z,19.20
2018-06-21T06:52:52.198Z,19.10
2018-06-21T06:55:20.742Z,19.00
2018-06-21T06:57:49.262Z,18.90
2018-06-21T07:00:17.773Z,18.90
2018-06-21T07:02:46.258Z,18.80
2018-06-21T07:05:15.147Z,18.80
2018-06-21T07:07:43.628Z,18.80
2018-06-21T07:10:12.140Z,18.80
2018-06-21T07:12:40.652Z,18.60
2018-06-21T07:15:09.170Z,18.30
2018-06-21T07:17:37.692Z,18.40
2018-06-21T07:20:06.353Z,18.40
2018-06-21T07:22:34.844Z,18.50
2018-06-21T07:25:03.420Z,18.50
2018-06-21T07:27:31.900Z,18.70
2018-06-21T07:30:00.398Z,19.00
2018-06-21T07:32:28.893Z,18.90
2018-06-21T07:34:57.410Z,18.80
2018-06-21T07:37:25.883Z,18.80
2018-06-21T07:39:54.410Z,18.90
2018-06-21T07:42:23.057Z,19.10
2018-06-21T07:44:51.529Z,19.00
2018-06-21T07:47:20.073Z,18.80
2018-06-21T07:49:48.565Z,18.80
2018-06-21T07:52:17.099Z,18.60
2018-06-21T07:57:13.801Z,18.40
2018-06-21T07:59:42.320Z,18.20
2018-06-21T08:02:10.889Z,18.10
2018-06-21T08:04:39.394Z,18.10
2018-06-21T08:07:08.024Z,18.20
2018-06-21T08:09:36.543Z,18.40
2018-06-21T08:12:05.065Z,18.50
2018-06-21T08:14:33.656Z,18.50
2018-06-21T08:17:02.197Z,18.50
2018-06-21T08:19:30.679Z,18.30
2018-06-21T08:21:59.218Z,18.40
2018-06-21T08:24:27.669Z,18.30
2018-06-21T08:26:56.398Z,18.30
2018-06-21T08:29:24.810Z,18.50
2018-06-21T08:31:53.494Z,18.90
2018-06-21T08:34:22.000Z,19.30
2018-06-21T08:36:50.533Z,20.00
2018-06-21T08:39:19.196Z,21.30
2018-06-21T08:41:47.669Z,21.70
2018-06-21T08:44:16.218Z,21.70
2018-06-21T08:46:44.741Z,21.70
2018-06-21T08:49:13.262Z,21.60
2018-06-21T08:51:41.773Z,21.70
2018-06-21T08:54:10.263Z,21.80
2018-06-21T08:56:38.762Z,21.50
2018-06-21T08:59:07.309Z,21.20
2018-06-21T09:01:35.783Z,20.80
2018-06-21T09:04:04.611Z,20.60
2018-06-21T09:06:33.171Z,20.50
2018-06-21T09:09:01.725Z,21.00
2018-06-21T09:11:30.244Z,21.10
2018-06-21T09:13:58.729Z,20.70
2018-06-21T09:16:27.283Z,20.60
2018-06-21T09:18:56.007Z,21.70
2018-06-21T09:21:24.497Z,22.80
2018-06-21T09:23:53.014Z,23.10
2018-06-21T09:26:21.538Z,23.10
2018-06-21T09:28:50.061Z,23.60
2018-06-21T09:31:18.612Z,23.10
2018-06-21T09:33:47.283Z,22.40
2018-06-21T09:36:15.825Z,22.60
2018-06-21T09:38:49.635Z,23.20
2018-06-21T09:41:23.419Z,24.30
2018-06-21T09:44:03.830Z,24.10
2018-06-21T09:46:34.366Z,24.70
2018-06-21T09:48:59.644Z,25.70
2018-06-21T09:51:28.165Z,24.60
2018-06-21T09:53:56.698Z,23.90
2018-06-21T09:56:25.242Z,23.50
2018-06-21T09:58:53.767Z,23.40
2018-06-21T10:01:22.337Z,23.60
2018-06-21T10:03:50.840Z,24.10
2018-06-21T10:06:19.383Z,24.70
2018-06-21T10:08:47.865Z,23.70
2018-06-21T10:11:16.416Z,23.20
2018-06-21T10:13:45.011Z,23.30
2018-06-21T10:16:13.569Z,22.30
2018-06-21T10:18:42.167Z,21.70
2018-06-21T10:21:10.717Z,21.70
2018-06-21T10:23:39.186Z,21.60
2018-06-21T10:26:07.730Z,22.00
2018-06-21T10:31:04.429Z,23.20
2018-06-21T10:33:32.929Z,23.50
2018-06-21T10:36:01.453Z,23.90
2018-06-21T10:38:29.942Z,23.80
2018-06-21T10:40:58.471Z,24.10
2018-06-21T10:43:27.004Z,24.60
2018-06-21T10:45:55.530Z,24.90
2018-06-21T10:48:24.050Z,24.50
2018-06-21T10:50:52.537Z,24.20
2018-06-21T10:53:22.430Z,23.50
2018-06-21T10:55:50.918Z,22.40
2018-06-21T10:58:19.504Z,21.70
2018-06-21T11:00:47.988Z,21.70
2018-06-21T11:03:16.524Z,21.80
2018-06-21T11:05:46.181Z,21.90
2018-06-21T11:08:14.717Z,21.70
2018-06-21T11:10:43.237Z,22.00
2018-06-21T11:13:11.813Z,22.00
2018-06-21T11:15:40.345Z,21.90
2018-06-21T11:18:08.983Z,21.90
2018-06-21T11:20:37.537Z,22.10
2018-06-21T11:23:06.089Z,22.20
2018-06-21T11:25:34.637Z,22.40
2018-06-21T11:28:03.181Z,22.30
2018-06-21T11:30:31.708Z,22.00
2018-06-21T11:33:00.331Z,22.00
2018-06-21T11:35:28.865Z,22.20
2018-06-21T11:37:57.622Z,22.50
2018-06-21T11:40:26.263Z,21.80
2018-06-21T11:42:54.858Z,21.60
2018-06-21T11:45:23.405Z,21.90
2018-06-21T11:47:52.030Z,21.70
2018-06-21T11:50:20.619Z,22.30
2018-06-21T11:52:49.168Z,22.50
2018-06-21T11:55:18.346Z,22.20
2018-06-21T11:57:46.871Z,22.30
2018-06-21T12:00:15.398Z,22.10
2018-06-21T12:02:43.929Z,21.90
2018-06-21T12:05:12.650Z,21.80
2018-06-21T12:07:41.208Z,21.50
2018-06-21T12:10:09.765Z,21.20
2018-06-21T12:12:38.484Z,21.20
2018-06-21T12:15:07.073Z,20.90
2018-06-21T12:17:35.590Z,20.70
2018-06-21T12:20:04.135Z,20.40
2018-06-21T12:22:32.687Z,20.40
2018-06-21T12:25:01.413Z,20.40
2018-06-21T12:27:33.503Z,20.80
2018-06-21T12:30:02.010Z,21.30
2018-06-21T12:32:30.909Z,21.70
2018-06-21T12:34:59.461Z,21.60
2018-06-21T12:37:28.150Z,21.70
2018-06-21T12:39:56.665Z,21.70
2018-06-21T12:42:25.179Z,21.30
2018-06-21T12:44:53.706Z,21.40
2018-06-21T12:47:22.323Z,21.60
2018-06-21T12:49:50.895Z,21.30
2018-06-21T12:52:19.614Z,21.20
2018-06-21T12:54:48.336Z,21.50
2018-06-21T12:57:17.056Z,21.50
2018-06-21T12:59:45.831Z,21.00
2018-06-21T13:02:14.476Z,21.20
2018-06-21T13:04:43.750Z,21.20
2018-06-21T13:07:12.544Z,21.60
2018-06-21T13:09:52.505Z,21.60
2018-06-21T13:12:33.648Z,21.20
2018-06-21T13:15:02.881Z,21.30
2018-06-21T13:17:36.737Z,21.60
2018-06-21T13:20:06.329Z,21.80
2018-06-21T13:22:34.957Z,21.50
2018-06-21T13:25:03.733Z,21.80
2018-06-21T13:27:32.385Z,21.80
2018-06-21T13:30:01.185Z,21.40
2018-06-21T13:32:29.975Z,21.10
2018-06-21T13:34:58.875Z,20.80
2018-06-21T13:37:27.514Z,20.90
2018-06-21T13:39:56.195Z,20.90
2018-06-21T13:42:24.909Z,20.90
2018-06-21T13:44:53.779Z,21.00
2018-06-21T13:47:27.354Z,21.00
2018-06-21T13:49:55.953Z,21.00
2018-06-21T13:52:24.463Z,20.60
2018-06-21T13:54:53.040Z,20.30
2018-06-21T13:57:21.554Z,20.40
2018-06-21T13:59:50.125Z,21.10
2018-06-21T14:02:18.640Z,21.40
2018-06-21T14:04:47.233Z,21.70
2018-06-21T14:07:15.878Z,21.60
2018-06-21T14:09:44.453Z,21.10
2018-06-21T14:12:13.041Z,20.90
2018-06-21T14:14:41.652Z,20.60
2018-06-21T14:17:10.189Z,20.50
2018-06-21T14:19:38.733Z,20.70
2018-06-21T14:22:07.244Z,20.60
2018-06-21T14:24:35.834Z,20.40
2018-06-21T14:27:04.374Z,20.20
2018-06-21T14:29:32.933Z,19.70
2018-06-21T14:32:01.452Z,19.70
2018-06-21T14:34:29.987Z,19.90
2018-06-21T14:36:58.490Z,19.70
2018-06-21T14:39:27.106Z,19.60
2018-06-21T14:41:55.649Z,19.60
2018-06-21T14:44:24.228Z,19.60
2018-06-21T14:46:53.520Z,19.50
2018-06-21T14:49:22.057Z,19.30
2018-06-21T14:51:50.612Z,19.40
2018-06-21T14:54:19.145Z,19.60
2018-06-21T14:56:47.765Z,19.70
2018-06-21T14:59:16.976Z,19.90
2018-06-21T15:01:45.625Z,19.90
2018-06-21T15:04:14.241Z,20.00
2018-06-21T15:06:42.811Z,19.80
2018-06-21T15:11:41.720Z,20.20
2018-06-21T15:14:10.432Z,20.50
2018-06-21T15:16:39.085Z,20.10
2018-06-21T15:19:07.584Z,20.10
2018-06-21T15:21:36.121Z,20.20
2018-06-21T15:24:04.737Z,20.10
2018-06-21T15:26:33.283Z,20.10
2018-06-21T15:29:08.802Z,19.40
2018-06-21T15:31:37.648Z,19.20
2018-06-21T15:34:06.137Z,19.10
2018-06-21T15:36:34.659Z,19.00
2018-06-21T15:39:13.019Z,18.90
2018-06-21T15:41:41.539Z,18.80
2018-06-21T15:44:10.225Z,18.90
2018-06-21T15:46:38.732Z,18.80
2018-06-21T15:49:24.392Z,18.80
2018-06-21T15:51:52.969Z,18.60
2018-06-21T15:54:21.484Z,18.40
2018-06-21T15:59:18.145Z,18.40
2018-06-21T16:01:46.734Z,18.50
2018-06-21T16:04:15.454Z,18.50
2018-06-21T16:06:44.189Z,18.30
2018-06-21T16:09:12.745Z,18.40
2018-06-21T16:11:41.226Z,18.30
2018-06-21T16:14:09.773Z,18.30
2018-06-21T16:16:38.300Z,18.30
2018-06-21T16:19:06.866Z,18.20
2018-06-21T16:21:35.381Z,18.20
2018-06-21T16:24:03.947Z,18.10
2018-06-21T16:26:32.453Z,17.90
2018-06-21T16:29:01.355Z,18.20
2018-06-21T16:31:29.877Z,19.00
2018-06-21T16:33:58.452Z,18.90
2018-06-21T16:36:27.659Z,18.90
2018-06-21T16:38:56.199Z,19.30
2018-06-21T16:41:25.618Z,19.80
2018-06-21T16:43:54.156Z,19.70
2018-06-21T16:46:24.564Z,19.80
2018-06-21T16:48:53.194Z,19.50
2018-06-21T16:51:21.716Z,19.80
2018-06-21T16:53:50.250Z,19.90
2018-06-21T16:56:18.806Z,19.50
2018-06-21T16:58:47.338Z,18.90
2018-06-21T17:01:15.870Z,18.30
2018-06-21T17:03:48.117Z,17.80
2018-06-21T17:06:17.886Z,17.70
2018-06-21T17:08:46.438Z,17.50
2018-06-21T17:11:14.990Z,17.20
2018-06-21T17:13:49.489Z,17.10
2018-06-21T17:16:20.286Z,16.90
2018-06-21T17:18:48.870Z,17.20
2018-06-21T17:21:17.390Z,17.40
2018-06-21T17:23:47.218Z,17.60
2018-06-21T17:26:15.741Z,17.80
2018-06-21T17:28:46.346Z,17.80
2018-06-21T17:31:14.878Z,17.80
2018-06-21T17:33:43.823Z,17.50
2018-06-21T17:36:12.414Z,17.20
2018-06-21T17:38:41.117Z,17.00
2018-06-21T17:41:09.710Z,16.80
2018-06-21T17:43:38.460Z,16.80
2018-06-21T17:46:06.945Z,16.90
2018-06-21T17:48:36.118Z,17.00
2018-06-21T17:51:04.658Z,17.20
2018-06-21T17:53:33.206Z,17.40
2018-06-21T17:56:01.697Z,17.30
2018-06-21T17:58:32.043Z,17.40
2018-06-21T18:01:00.602Z,17.30
2018-06-21T18:03:29.154Z,17.30
2018-06-21T18:05:57.645Z,17.20
2018-06-21T18:08:26.197Z,17.30
2018-06-21T18:10:54.710Z,17.20
2018-06-21T18:13:23.354Z,17.00
2018-06-21T18:15:52.950Z,17.00
2018-06-21T18:18:21.499Z,16.80
2018-06-21T18:20:50.028Z,16.70
2018-06-21T18:23:18.589Z,16.60
2018-06-21T18:25:47.155Z,16.50
2018-06-21T18:28:15.669Z,16.40
2018-06-21T18:30:44.197Z,16.30
2018-06-21T18:33:12.782Z,16.30
2018-06-21T18:35:41.265Z,16.20
2018-06-21T18:38:09.762Z,16.10
2018-06-21T18:40:38.374Z,16.10
2018-06-21T18:43:06.909Z,16.10
2018-06-21T18:45:35.454Z,16.10
2018-06-21T18:48:03.966Z,16.10
2018-06-21T18:53:00.673Z,16.10
2018-06-21T18:55:29.313Z,16.10
2018-06-21T18:57:57.837Z,16.00
2018-06-21T19:00:29.111Z,15.90
2018-06-21T19:02:57.713Z,15.80
2018-06-21T19:05:26.362Z,15.80
2018-06-21T19:08:00.183Z,15.70
2018-06-21T19:10:34.213Z,15.70
2018-06-21T19:13:02.750Z,15.70
2018-06-21T19:15:31.272Z,15.60
2018-06-21T19:17:59.774Z,15.60
2018-06-21T19:20:28.318Z,15.50
2018-06-21T19:22:56.784Z,15.40
2018-06-21T19:25:25.306Z,15.30
2018-06-21T19:27:53.861Z,15.20
2018-06-21T19:30:22.388Z,15.20
2018-06-21T19:32:50.898Z,15.20
2018-06-21T19:37:47.599Z,15.00
2018-06-21T19:40:16.249Z,14.90
2018-06-21T19:42:44.766Z,14.80
2018-06-21T19:45:13.312Z,14.70
2018-06-21T19:47:41.837Z,14.50
2018-06-21T19:50:10.342Z,14.50
2018-06-21T19:52:38.941Z,14.40
2018-06-21T19:55:07.426Z,14.40
2018-06-21T19:57:35.976Z,14.40
2018-06-21T20:00:04.638Z,14.30
2018-06-21T20:02:38.598Z,14.20
2018-06-21T20:05:07.162Z,14.10
2018-06-21T20:07:35.656Z,14.00
2018-06-21T20:10:04.163Z,13.90
2018-06-21T20:12:32.768Z,13.80
2018-06-21T20:15:01.335Z,13.70
2018-06-21T20:17:30.174Z,13.60
2018-06-21T20:20:04.192Z,13.50
2018-06-21T20:22:32.869Z,13.50
2018-06-21T20:25:02.248Z,13.30
2018-06-21T20:27:30.963Z,13.20
2018-06-21T20:29:59.474Z,13.20
2018-06-21T20:32:27.994Z,13.10
2018-06-21T20:34:56.490Z,13.10
2018-06-21T20:37:25.418Z,13.10
2018-06-21T20:39:53.973Z,13.00
2018-06-21T20:42:22.568Z,13.10
2018-06-21T20:44:51.161Z,13.20
2018-06-21T20:47:19.945Z,13.20
2018-06-21T20:49:48.542Z,13.20
2018-06-21T20:52:22.721Z,13.20
2018-06-21T20:54:51.517Z,13.30
2018-06-21T20:57:20.056Z,13.30
2018-06-21T20:59:48.601Z,13.20
2018-06-21T21:02:17.076Z,13.20
2018-06-21T21:07:48.724Z,13.00
2018-06-21T21:10:18.119Z,12.90
2018-06-21T21:12:46.629Z,12.80
2018-06-21T21:15:15.505Z,12.90
2018-06-21T21:17:44.003Z,12.90
2018-06-21T21:20:12.493Z,12.90
2018-06-21T21:22:42.613Z,12.80
2018-06-21T21:25:11.134Z,12.80
2018-06-21T21:27:39.645Z,12.70
2018-06-21T21:30:08.975Z,12.70
2018-06-21T21:32:37.461Z,12.60
2018-06-21T21:35:05.997Z,12.60
2018-06-21T21:37:34.478Z,12.60
2018-06-21T21:40:06.418Z,12.60
2018-06-21T21:42:36.105Z,12.50
2018-06-21T21:45:04.741Z,12.50
2018-06-21T21:47:33.229Z,12.50
2018-06-21T21:50:01.675Z,12.50
2018-06-21T21:52:30.199Z,12.50
2018-06-21T21:54:58.725Z,12.40
2018-06-21T21:57:27.263Z,12.40
2018-06-21T22:00:00.337Z,12.40
2018-06-21T22:02:28.805Z,12.30
2018-06-21T22:04:57.249Z,12.20
2018-06-21T22:07:25.729Z,12.20
2018-06-21T22:09:54.209Z,12.10
2018-06-21T22:12:22.690Z,12.20
2018-06-21T22:14:51.136Z,12.10
2018-06-21T22:17:19.621Z,12.10
2018-06-21T22:19:48.066Z,12.00
2018-06-21T22:22:16.604Z,12.00
2018-06-21T22:24:45.047Z,11.90
2018-06-21T22:27:13.497Z,11.90
2018-06-21T22:29:41.966Z,11.90
2018-06-21T22:32:10.445Z,11.80
2018-06-21T22:34:38.882Z,11.70
2018-06-21T22:37:07.338Z,11.60
2018-06-21T22:39:35.768Z,11.60
2018-06-21T22:42:04.257Z,11.50
2018-06-21T22:44:32.730Z,11.60
2018-06-21T22:47:01.157Z,11.50
2018-06-21T22:49:29.637Z,11.50
2018-06-21T22:51:58.062Z,11.50
2018-06-21T22:54:26.569Z,11.50
2018-06-21T22:56:55.027Z,11.50
2018-06-21T22:59:23.507Z,11.50
2018-06-21T23:01:51.946Z,11.40
2018-06-21T23:04:20.441Z,11.40
2018-06-21T23:06:48.902Z,11.30
2018-06-21T23:09:17.393Z,11.20
2018-06-21T23:11:45.877Z,11.20
2018-06-21T23:14:14.377Z,11.20
2018-06-21T23:16:42.863Z,11.10
2018-06-21T23:19:31.578Z,11.00
2018-06-21T23:22:00.742Z,11.00
2018-06-21T23:24:29.266Z,11.10
2018-06-21T23:26:57.689Z,11.10
2018-06-21T23:29:26.178Z,11.00
2018-06-21T23:31:54.657Z,11.00
2018-06-21T23:34:23.183Z,10.90
2018-06-21T23:36:51.869Z,10.90
2018-06-21T23:39:20.348Z,10.80
2018-06-21T23:41:48.845Z,10.70
2018-06-21T23:44:17.326Z,10.70
2018-06-21T23:46:45.807Z,10.70
2018-06-21T23:49:14.455Z,10.70
2018-06-21T23:51:42.950Z,10.70
2018-06-21T23:54:12.726Z,10.60
2018-06-21T23:56:42.597Z,10.60
2018-06-21T23:59:11.037Z,10.50
